sensor_id;sensor_type;location;lat;lon;timestamp;P1;durP1;ratioP1;P2;durP2;ratioP2
63714;SDS011;49858;48.956;9.076;2022-10-03T00:02:45;37.22;;;13.75;;
63714;SDS011;49858;48.956;9.076;2022-10-03T00:05:28;41.47;;;13.82;;
63714;SDS011;49858;48.956;9.076;2022-10-03T00:08:08;41.00;;;13.27;;
63714;SDS011;49858;48.956;9.076;2022-10-03T00:10:49;40.80;;;12.45;;
63714;SDS011;49858;48.956;9.076;2022-10-03T00:13:29;37.47;;;12.88;;
63714;SDS011;49858;48.956;9.076;2022-10-03T00:16:08;36.00;;;11.68;;
63714;SDS011;49858;48.956;9.076;2022-10-03T00:18:47;25.00;;;10.55;;
63714;SDS011;49858;48.956;9.076;2022-10-03T00:21:28;26.20;;;11.95;;
63714;SDS011;49858;48.956;9.076;2022-10-03T00:24:10;28.55;;;12.07;;
63714;SDS011;49858;48.956;9.076;2022-10-03T00:26:48;32.17;;;10.98;;
63714;SDS011;49858;48.956;9.076;2022-10-03T00:29:22;30.38;;;11.77;;
63714;SDS011;49858;48.956;9.076;2022-10-03T00:32:01;31.42;;;11.20;;
63714;SDS011;49858;48.956;9.076;2022-10-03T00:34:44;28.70;;;10.75;;
63714;SDS011;49858;48.956;9.076;2022-10-03T00:37:25;25.20;;;10.75;;
63714;SDS011;49858;48.956;9.076;2022-10-03T00:40:12;27.25;;;10.43;;
63714;SDS011;49858;48.956;9.076;2022-10-03T00:43:16;29.23;;;10.38;;
63714;SDS011;49858;48.956;9.076;2022-10-03T00:46:15;24.80;;;10.30;;
63714;SDS011;49858;48.956;9.076;2022-10-03T00:52:11;26.90;;;10.20;;
63714;SDS011;49858;48.956;9.076;2022-10-03T00:55:00;24.45;;;10.20;;
63714;SDS011;49858;48.956;9.076;2022-10-03T00:57:41;23.77;;;10.35;;
63714;SDS011;49858;48.956;9.076;2022-10-03T01:00:22;21.50;;;9.45;;
63714;SDS011;49858;48.956;9.076;2022-10-03T01:03:08;24.08;;;8.80;;
63714;SDS011;49858;48.956;9.076;2022-10-03T01:05:51;21.17;;;9.18;;
63714;SDS011;49858;48.956;9.076;2022-10-03T01:08:35;20.00;;;10.05;;
63714;SDS011;49858;48.956;9.076;2022-10-03T01:11:28;19.15;;;9.52;;
63714;SDS011;49858;48.956;9.076;2022-10-03T01:14:14;23.15;;;10.25;;
63714;SDS011;49858;48.956;9.076;2022-10-03T01:16:53;20.73;;;10.65;;
63714;SDS011;49858;48.956;9.076;2022-10-03T01:19:32;23.60;;;9.88;;
63714;SDS011;49858;48.956;9.076;2022-10-03T01:22:21;18.00;;;9.10;;
63714;SDS011;49858;48.956;9.076;2022-10-03T01:25:06;20.23;;;9.68;;
63714;SDS011;49858;48.956;9.076;2022-10-03T01:27:48;21.33;;;9.75;;
63714;SDS011;49858;48.956;9.076;2022-10-03T01:30:47;20.23;;;9.88;;
63714;SDS011;49858;48.956;9.076;2022-10-03T01:33:20;22.38;;;9.88;;
63714;SDS011;49858;48.956;9.076;2022-10-03T01:38:26;21.05;;;8.45;;
63714;SDS011;49858;48.956;9.076;2022-10-03T01:41:00;21.88;;;9.85;;
63714;SDS011;49858;48.956;9.076;2022-10-03T01:43:33;19.02;;;9.70;;
63714;SDS011;49858;48.956;9.076;2022-10-03T01:46:11;23.83;;;10.98;;
63714;SDS011;49858;48.956;9.076;2022-10-03T01:48:47;18.25;;;8.48;;
63714;SDS011;49858;48.956;9.076;2022-10-03T01:51:26;21.42;;;9.30;;
63714;SDS011;49858;48.956;9.076;2022-10-03T01:54:06;16.95;;;8.00;;
63714;SDS011;49858;48.956;9.076;2022-10-03T01:56:46;7.63;;;5.10;;
63714;SDS011;49858;48.956;9.076;2022-10-03T01:59:27;17.38;;;7.88;;
63714;SDS011;49858;48.956;9.076;2022-10-03T02:02:06;15.25;;;8.45;;
63714;SDS011;49858;48.956;9.076;2022-10-03T02:04:41;19.92;;;10.80;;
63714;SDS011;49858;48.956;9.076;2022-10-03T02:07:18;27.95;;;12.15;;
63714;SDS011;49858;48.956;9.076;2022-10-03T02:09:56;23.55;;;10.45;;
63714;SDS011;49858;48.956;9.076;2022-10-03T02:12:34;17.95;;;9.48;;
63714;SDS011;49858;48.956;9.076;2022-10-03T02:15:11;9.00;;;5.05;;
63714;SDS011;49858;48.956;9.076;2022-10-03T02:17:48;21.50;;;10.88;;
63714;SDS011;49858;48.956;9.076;2022-10-03T02:20:23;20.35;;;8.95;;
63714;SDS011;49858;48.956;9.076;2022-10-03T02:22:58;17.60;;;6.60;;
63714;SDS011;49858;48.956;9.076;2022-10-03T02:25:29;23.60;;;10.10;;
63714;SDS011;49858;48.956;9.076;2022-10-03T02:28:29;17.73;;;7.47;;
63714;SDS011;49858;48.956;9.076;2022-10-03T02:40:20;21.65;;;8.32;;
63714;SDS011;49858;48.956;9.076;2022-10-03T02:46:09;18.67;;;8.55;;
63714;SDS011;49858;48.956;9.076;2022-10-03T02:49:03;33.28;;;12.45;;
63714;SDS011;49858;48.956;9.076;2022-10-03T02:51:56;25.60;;;10.60;;
63714;SDS011;49858;48.956;9.076;2022-10-03T02:54:50;32.67;;;10.27;;
63714;SDS011;49858;48.956;9.076;2022-10-03T02:57:36;32.22;;;11.70;;
63714;SDS011;49858;48.956;9.076;2022-10-03T03:00:20;25.27;;;10.40;;
63714;SDS011;49858;48.956;9.076;2022-10-03T03:06:06;28.00;;;11.75;;
63714;SDS011;49858;48.956;9.076;2022-10-03T03:11:30;20.60;;;9.90;;
63714;SDS011;49858;48.956;9.076;2022-10-03T03:14:23;21.52;;;10.00;;
63714;SDS011;49858;48.956;9.076;2022-10-03T03:17:26;9.25;;;5.93;;
63714;SDS011;49858;48.956;9.076;2022-10-03T03:20:07;19.92;;;7.00;;
63714;SDS011;49858;48.956;9.076;2022-10-03T03:22:51;22.73;;;8.80;;
63714;SDS011;49858;48.956;9.076;2022-10-03T03:25:34;24.02;;;8.45;;
63714;SDS011;49858;48.956;9.076;2022-10-03T03:28:17;25.75;;;10.30;;
63714;SDS011;49858;48.956;9.076;2022-10-03T03:30:55;25.02;;;10.05;;
63714;SDS011;49858;48.956;9.076;2022-10-03T03:33:33;34.45;;;11.35;;
63714;SDS011;49858;48.956;9.076;2022-10-03T03:36:12;25.98;;;11.35;;
63714;SDS011;49858;48.956;9.076;2022-10-03T03:38:52;25.63;;;10.23;;
63714;SDS011;49858;48.956;9.076;2022-10-03T03:41:35;26.92;;;10.30;;
63714;SDS011;49858;48.956;9.076;2022-10-03T03:44:24;21.00;;;8.32;;
63714;SDS011;49858;48.956;9.076;2022-10-03T03:47:18;28.13;;;11.63;;
63714;SDS011;49858;48.956;9.076;2022-10-03T03:50:09;25.40;;;10.70;;
63714;SDS011;49858;48.956;9.076;2022-10-03T03:52:53;25.67;;;10.70;;
63714;SDS011;49858;48.956;9.076;2022-10-03T03:55:36;30.80;;;12.50;;
63714;SDS011;49858;48.956;9.076;2022-10-03T03:58:19;33.53;;;13.30;;
63714;SDS011;49858;48.956;9.076;2022-10-03T04:01:02;29.07;;;12.53;;
63714;SDS011;49858;48.956;9.076;2022-10-03T04:03:49;33.08;;;13.52;;
63714;SDS011;49858;48.956;9.076;2022-10-03T04:06:29;32.92;;;14.13;;
63714;SDS011;49858;48.956;9.076;2022-10-03T04:09:13;32.95;;;13.77;;
63714;SDS011;49858;48.956;9.076;2022-10-03T04:11:58;33.50;;;13.52;;
63714;SDS011;49858;48.956;9.076;2022-10-03T04:14:48;32.55;;;13.82;;
63714;SDS011;49858;48.956;9.076;2022-10-03T04:17:35;34.65;;;13.93;;
63714;SDS011;49858;48.956;9.076;2022-10-03T04:20:33;28.13;;;12.48;;
63714;SDS011;49858;48.956;9.076;2022-10-03T04:23:19;34.97;;;12.25;;
63714;SDS011;49858;48.956;9.076;2022-10-03T04:26:07;35.17;;;12.63;;
63714;SDS011;49858;48.956;9.076;2022-10-03T04:28:51;34.75;;;12.40;;
63714;SDS011;49858;48.956;9.076;2022-10-03T04:31:41;27.95;;;11.70;;
63714;SDS011;49858;48.956;9.076;2022-10-03T04:34:20;28.92;;;12.18;;
63714;SDS011;49858;48.956;9.076;2022-10-03T04:37:00;31.63;;;12.85;;
63714;SDS011;49858;48.956;9.076;2022-10-03T04:39:41;27.70;;;11.23;;
63714;SDS011;49858;48.956;9.076;2022-10-03T04:42:18;30.48;;;12.90;;
63714;SDS011;49858;48.956;9.076;2022-10-03T04:45:06;28.25;;;12.25;;
63714;SDS011;49858;48.956;9.076;2022-10-03T04:47:46;28.40;;;12.15;;
63714;SDS011;49858;48.956;9.076;2022-10-03T04:50:23;32.67;;;13.05;;
63714;SDS011;49858;48.956;9.076;2022-10-03T04:53:09;34.35;;;14.10;;
63714;SDS011;49858;48.956;9.076;2022-10-03T04:58:17;29.50;;;11.50;;
63714;SDS011;49858;48.956;9.076;2022-10-03T05:00:56;35.38;;;12.70;;
63714;SDS011;49858;48.956;9.076;2022-10-03T05:03:36;29.55;;;13.05;;
63714;SDS011;49858;48.956;9.076;2022-10-03T05:06:27;29.67;;;11.93;;
63714;SDS011;49858;48.956;9.076;2022-10-03T05:09:11;30.63;;;12.18;;
63714;SDS011;49858;48.956;9.076;2022-10-03T05:11:52;31.73;;;13.50;;
63714;SDS011;49858;48.956;9.076;2022-10-03T05:14:37;34.23;;;13.60;;
63714;SDS011;49858;48.956;9.076;2022-10-03T05:17:19;34.63;;;14.23;;
63714;SDS011;49858;48.956;9.076;2022-10-03T05:19:59;35.27;;;14.87;;
63714;SDS011;49858;48.956;9.076;2022-10-03T05:22:41;40.25;;;13.68;;
63714;SDS011;49858;48.956;9.076;2022-10-03T05:25:19;33.25;;;13.55;;
63714;SDS011;49858;48.956;9.076;2022-10-03T05:27:58;35.75;;;13.50;;
63714;SDS011;49858;48.956;9.076;2022-10-03T05:30:39;32.88;;;14.55;;
63714;SDS011;49858;48.956;9.076;2022-10-03T05:33:13;42.47;;;13.93;;
63714;SDS011;49858;48.956;9.076;2022-10-03T05:35:53;35.38;;;13.38;;
63714;SDS011;49858;48.956;9.076;2022-10-03T05:38:57;43.83;;;14.35;;
63714;SDS011;49858;48.956;9.076;2022-10-03T05:41:49;31.23;;;12.03;;
63714;SDS011;49858;48.956;9.076;2022-10-03T05:44:40;29.17;;;12.38;;
63714;SDS011;49858;48.956;9.076;2022-10-03T05:47:12;33.10;;;13.98;;
63714;SDS011;49858;48.956;9.076;2022-10-03T05:53:07;30.42;;;13.68;;
63714;SDS011;49858;48.956;9.076;2022-10-03T05:55:49;37.88;;;13.35;;
63714;SDS011;49858;48.956;9.076;2022-10-03T05:58:30;29.05;;;12.45;;
63714;SDS011;49858;48.956;9.076;2022-10-03T06:01:16;26.27;;;12.80;;
63714;SDS011;49858;48.956;9.076;2022-10-03T06:04:22;28.55;;;11.77;;
63714;SDS011;49858;48.956;9.076;2022-10-03T06:07:13;29.48;;;14.07;;
63714;SDS011;49858;48.956;9.076;2022-10-03T06:09:58;25.42;;;12.60;;
63714;SDS011;49858;48.956;9.076;2022-10-03T06:12:42;27.70;;;13.85;;
63714;SDS011;49858;48.956;9.076;2022-10-03T06:15:28;30.73;;;14.75;;
63714;SDS011;49858;48.956;9.076;2022-10-03T06:18:16;37.50;;;14.30;;
63714;SDS011;49858;48.956;9.076;2022-10-03T06:21:10;33.13;;;14.13;;
63714;SDS011;49858;48.956;9.076;2022-10-03T06:24:10;35.08;;;15.48;;
63714;SDS011;49858;48.956;9.076;2022-10-03T06:26:59;42.10;;;15.50;;
63714;SDS011;49858;48.956;9.076;2022-10-03T06:33:08;40.08;;;15.13;;
63714;SDS011;49858;48.956;9.076;2022-10-03T06:36:05;37.90;;;14.32;;
63714;SDS011;49858;48.956;9.076;2022-10-03T06:45:39;36.47;;;12.95;;
63714;SDS011;49858;48.956;9.076;2022-10-03T06:48:24;40.13;;;14.00;;
63714;SDS011;49858;48.956;9.076;2022-10-03T06:57:17;38.67;;;13.85;;
63714;SDS011;49858;48.956;9.076;2022-10-03T07:00:11;31.65;;;12.70;;
63714;SDS011;49858;48.956;9.076;2022-10-03T07:08:51;38.78;;;14.27;;
63714;SDS011;49858;48.956;9.076;2022-10-03T07:14:43;39.90;;;12.65;;
63714;SDS011;49858;48.956;9.076;2022-10-03T07:17:35;34.90;;;14.10;;
63714;SDS011;49858;48.956;9.076;2022-10-03T07:20:28;32.05;;;13.48;;
63714;SDS011;49858;48.956;9.076;2022-10-03T07:26:37;44.33;;;12.23;;
63714;SDS011;49858;48.956;9.076;2022-10-03T07:32:50;42.38;;;12.57;;
63714;SDS011;49858;48.956;9.076;2022-10-03T07:35:50;33.75;;;10.98;;
63714;SDS011;49858;48.956;9.076;2022-10-03T07:44:58;36.33;;;11.07;;
63714;SDS011;49858;48.956;9.076;2022-10-03T07:47:44;34.50;;;10.85;;
63714;SDS011;49858;48.956;9.076;2022-10-03T07:53:44;38.88;;;11.18;;
63714;SDS011;49858;48.956;9.076;2022-10-03T07:56:51;37.00;;;11.10;;
63714;SDS011;49858;48.956;9.076;2022-10-03T08:05:59;33.80;;;13.10;;
63714;SDS011;49858;48.956;9.076;2022-10-03T08:09:00;35.63;;;11.27;;
63714;SDS011;49858;48.956;9.076;2022-10-03T08:11:55;35.50;;;11.65;;
63714;SDS011;49858;48.956;9.076;2022-10-03T08:14:46;37.42;;;13.00;;
63714;SDS011;49858;48.956;9.076;2022-10-03T08:17:31;35.75;;;11.38;;
63714;SDS011;49858;48.956;9.076;2022-10-03T08:20:31;42.15;;;13.35;;
63714;SDS011;49858;48.956;9.076;2022-10-03T08:23:27;50.03;;;14.07;;
63714;SDS011;49858;48.956;9.076;2022-10-03T08:26:17;42.88;;;13.30;;
63714;SDS011;49858;48.956;9.076;2022-10-03T08:29:00;31.23;;;11.40;;
63714;SDS011;49858;48.956;9.076;2022-10-03T08:31:46;36.45;;;12.48;;
63714;SDS011;49858;48.956;9.076;2022-10-03T08:34:33;36.22;;;13.48;;
63714;SDS011;49858;48.956;9.076;2022-10-03T08:40:31;37.50;;;12.63;;
63714;SDS011;49858;48.956;9.076;2022-10-03T08:43:30;22.00;;;10.88;;
63714;SDS011;49858;48.956;9.076;2022-10-03T08:46:22;34.65;;;12.57;;
63714;SDS011;49858;48.956;9.076;2022-10-03T08:49:14;27.50;;;11.50;;
63714;SDS011;49858;48.956;9.076;2022-10-03T08:52:01;26.52;;;11.52;;
63714;SDS011;49858;48.956;9.076;2022-10-03T08:54:50;29.00;;;11.52;;
63714;SDS011;49858;48.956;9.076;2022-10-03T09:00:40;28.67;;;10.52;;
63714;SDS011;49858;48.956;9.076;2022-10-03T09:06:54;36.22;;;11.30;;
63714;SDS011;49858;48.956;9.076;2022-10-03T09:18:56;28.38;;;10.18;;
63714;SDS011;49858;48.956;9.076;2022-10-03T09:21:44;17.02;;;7.32;;
63714;SDS011;49858;48.956;9.076;2022-10-03T09:27:41;27.60;;;8.95;;
63714;SDS011;49858;48.956;9.076;2022-10-03T09:30:45;20.40;;;9.10;;
63714;SDS011;49858;48.956;9.076;2022-10-03T09:42:41;17.17;;;6.68;;
63714;SDS011;49858;48.956;9.076;2022-10-03T09:48:51;21.38;;;6.13;;
63714;SDS011;49858;48.956;9.076;2022-10-03T09:51:53;15.55;;;5.82;;
63714;SDS011;49858;48.956;9.076;2022-10-03T10:00:32;29.80;;;10.57;;
63714;SDS011;49858;48.956;9.076;2022-10-03T10:03:47;29.75;;;10.23;;
63714;SDS011;49858;48.956;9.076;2022-10-03T10:13:34;28.63;;;9.32;;
63714;SDS011;49858;48.956;9.076;2022-10-03T10:16:36;40.13;;;15.20;;
63714;SDS011;49858;48.956;9.076;2022-10-03T10:19:23;27.63;;;9.80;;
63714;SDS011;49858;48.956;9.076;2022-10-03T10:22:16;30.73;;;10.57;;
63714;SDS011;49858;48.956;9.076;2022-10-03T10:38:20;16.48;;;6.70;;
63714;SDS011;49858;48.956;9.076;2022-10-03T10:49:46;12.70;;;6.10;;
63714;SDS011;49858;48.956;9.076;2022-10-03T10:55:56;14.38;;;5.63;;
63714;SDS011;49858;48.956;9.076;2022-10-03T10:59:13;7.60;;;4.45;;
63714;SDS011;49858;48.956;9.076;2022-10-03T11:02:20;11.13;;;4.93;;
63714;SDS011;49858;48.956;9.076;2022-10-03T11:05:35;15.50;;;4.93;;
63714;SDS011;49858;48.956;9.076;2022-10-03T11:08:26;8.05;;;4.40;;
63714;SDS011;49858;48.956;9.076;2022-10-03T11:11:23;11.30;;;4.43;;
63714;SDS011;49858;48.956;9.076;2022-10-03T11:14:12;8.30;;;4.22;;
63714;SDS011;49858;48.956;9.076;2022-10-03T11:17:12;9.88;;;4.18;;
63714;SDS011;49858;48.956;9.076;2022-10-03T11:23:25;11.95;;;3.65;;
63714;SDS011;49858;48.956;9.076;2022-10-03T11:38:38;8.00;;;4.43;;
63714;SDS011;49858;48.956;9.076;2022-10-03T11:41:12;10.32;;;4.35;;
63714;SDS011;49858;48.956;9.076;2022-10-03T11:43:56;13.52;;;4.53;;
63714;SDS011;49858;48.956;9.076;2022-10-03T11:46:45;10.82;;;4.35;;
63714;SDS011;49858;48.956;9.076;2022-10-03T11:49:38;14.38;;;4.55;;
63714;SDS011;49858;48.956;9.076;2022-10-03T11:52:27;12.60;;;4.05;;
63714;SDS011;49858;48.956;9.076;2022-10-03T11:55:03;8.20;;;3.63;;
63714;SDS011;49858;48.956;9.076;2022-10-03T11:57:43;11.15;;;4.38;;
63714;SDS011;49858;48.956;9.076;2022-10-03T12:00:18;10.32;;;4.90;;
63714;SDS011;49858;48.956;9.076;2022-10-03T12:03:03;7.85;;;4.00;;
63714;SDS011;49858;48.956;9.076;2022-10-03T12:05:49;10.07;;;4.28;;
63714;SDS011;49858;48.956;9.076;2022-10-03T12:08:44;15.98;;;4.40;;
63714;SDS011;49858;48.956;9.076;2022-10-03T12:11:27;12.38;;;4.15;;
63714;SDS011;49858;48.956;9.076;2022-10-03T12:14:05;11.98;;;4.85;;
63714;SDS011;49858;48.956;9.076;2022-10-03T12:16:54;7.78;;;4.30;;
63714;SDS011;49858;48.956;9.076;2022-10-03T12:19:30;7.70;;;4.10;;
63714;SDS011;49858;48.956;9.076;2022-10-03T12:22:05;11.82;;;4.30;;
63714;SDS011;49858;48.956;9.076;2022-10-03T12:24:43;7.68;;;3.70;;
63714;SDS011;49858;48.956;9.076;2022-10-03T12:27:16;9.52;;;3.83;;
63714;SDS011;49858;48.956;9.076;2022-10-03T12:29:53;5.72;;;3.63;;
63714;SDS011;49858;48.956;9.076;2022-10-03T12:32:26;8.07;;;3.72;;
63714;SDS011;49858;48.956;9.076;2022-10-03T12:35:07;9.65;;;4.30;;
63714;SDS011;49858;48.956;9.076;2022-10-03T12:37:43;6.90;;;3.50;;
63714;SDS011;49858;48.956;9.076;2022-10-03T12:40:22;7.18;;;3.55;;
63714;SDS011;49858;48.956;9.076;2022-10-03T12:42:58;9.07;;;4.65;;
63714;SDS011;49858;48.956;9.076;2022-10-03T12:45:37;10.25;;;4.70;;
63714;SDS011;49858;48.956;9.076;2022-10-03T12:48:13;14.68;;;6.10;;
63714;SDS011;49858;48.956;9.076;2022-10-03T12:50:56;18.20;;;8.35;;
63714;SDS011;49858;48.956;9.076;2022-10-03T12:53:31;8.85;;;4.63;;
63714;SDS011;49858;48.956;9.076;2022-10-03T12:56:11;12.07;;;3.38;;
63714;SDS011;49858;48.956;9.076;2022-10-03T12:58:49;8.23;;;3.60;;
63714;SDS011;49858;48.956;9.076;2022-10-03T13:01:26;9.18;;;3.60;;
63714;SDS011;49858;48.956;9.076;2022-10-03T13:04:08;9.10;;;3.05;;
63714;SDS011;49858;48.956;9.076;2022-10-03T13:07:00;10.10;;;3.53;;
63714;SDS011;49858;48.956;9.076;2022-10-03T13:09:46;9.15;;;3.92;;
63714;SDS011;49858;48.956;9.076;2022-10-03T13:12:25;8.18;;;3.30;;
63714;SDS011;49858;48.956;9.076;2022-10-03T13:18:15;10.15;;;4.45;;
63714;SDS011;49858;48.956;9.076;2022-10-03T13:20:54;10.73;;;3.40;;
63714;SDS011;49858;48.956;9.076;2022-10-03T13:23:57;6.00;;;2.83;;
63714;SDS011;49858;48.956;9.076;2022-10-03T13:26:34;7.40;;;3.05;;
63714;SDS011;49858;48.956;9.076;2022-10-03T13:32:11;7.72;;;3.97;;
63714;SDS011;49858;48.956;9.076;2022-10-03T13:34:48;8.13;;;3.40;;
63714;SDS011;49858;48.956;9.076;2022-10-03T13:40:50;8.60;;;3.72;;
63714;SDS011;49858;48.956;9.076;2022-10-03T13:43:27;7.55;;;3.92;;
63714;SDS011;49858;48.956;9.076;2022-10-03T13:46:01;9.65;;;3.80;;
63714;SDS011;49858;48.956;9.076;2022-10-03T13:48:33;9.18;;;3.10;;
63714;SDS011;49858;48.956;9.076;2022-10-03T13:51:03;6.40;;;2.63;;
63714;SDS011;49858;48.956;9.076;2022-10-03T13:53:43;6.28;;;2.40;;
63714;SDS011;49858;48.956;9.076;2022-10-03T13:56:26;7.28;;;2.65;;
63714;SDS011;49858;48.956;9.076;2022-10-03T13:59:06;4.22;;;2.10;;
63714;SDS011;49858;48.956;9.076;2022-10-03T14:01:54;5.35;;;2.05;;
63714;SDS011;49858;48.956;9.076;2022-10-03T14:07:28;7.28;;;2.10;;
63714;SDS011;49858;48.956;9.076;2022-10-03T14:10:11;5.80;;;2.00;;
63714;SDS011;49858;48.956;9.076;2022-10-03T14:12:57;4.38;;;1.75;;
63714;SDS011;49858;48.956;9.076;2022-10-03T14:15:40;4.90;;;2.20;;
63714;SDS011;49858;48.956;9.076;2022-10-03T14:18:18;5.88;;;2.25;;
63714;SDS011;49858;48.956;9.076;2022-10-03T14:24:01;9.80;;;2.20;;
63714;SDS011;49858;48.956;9.076;2022-10-03T14:26:40;6.47;;;2.10;;
63714;SDS011;49858;48.956;9.076;2022-10-03T14:29:16;8.10;;;2.30;;
63714;SDS011;49858;48.956;9.076;2022-10-03T14:31:53;4.95;;;2.20;;
63714;SDS011;49858;48.956;9.076;2022-10-03T14:34:36;4.18;;;2.00;;
63714;SDS011;49858;48.956;9.076;2022-10-03T14:37:14;2.80;;;2.00;;
63714;SDS011;49858;48.956;9.076;2022-10-03T14:39:54;6.88;;;2.55;;
63714;SDS011;49858;48.956;9.076;2022-10-03T14:42:35;9.45;;;2.65;;
63714;SDS011;49858;48.956;9.076;2022-10-03T14:45:17;5.47;;;2.22;;
63714;SDS011;49858;48.956;9.076;2022-10-03T14:47:49;4.25;;;2.05;;
63714;SDS011;49858;48.956;9.076;2022-10-03T14:50:22;4.72;;;2.03;;
63714;SDS011;49858;48.956;9.076;2022-10-03T14:52:53;5.57;;;2.13;;
63714;SDS011;49858;48.956;9.076;2022-10-03T14:55:29;4.85;;;2.13;;
63714;SDS011;49858;48.956;9.076;2022-10-03T14:57:59;3.85;;;2.13;;
63714;SDS011;49858;48.956;9.076;2022-10-03T15:00:39;5.78;;;2.35;;
63714;SDS011;49858;48.956;9.076;2022-10-03T15:03:18;7.43;;;1.98;;
63714;SDS011;49858;48.956;9.076;2022-10-03T15:06:02;9.07;;;3.10;;
63714;SDS011;49858;48.956;9.076;2022-10-03T15:08:46;4.88;;;2.40;;
63714;SDS011;49858;48.956;9.076;2022-10-03T15:11:16;4.45;;;2.35;;
63714;SDS011;49858;48.956;9.076;2022-10-03T15:13:52;8.25;;;2.55;;
63714;SDS011;49858;48.956;9.076;2022-10-03T15:16:24;4.10;;;1.95;;
63714;SDS011;49858;48.956;9.076;2022-10-03T15:18:55;2.63;;;1.98;;
63714;SDS011;49858;48.956;9.076;2022-10-03T15:21:29;6.35;;;2.10;;
63714;SDS011;49858;48.956;9.076;2022-10-03T15:23:58;3.00;;;1.70;;
63714;SDS011;49858;48.956;9.076;2022-10-03T15:26:31;6.68;;;1.75;;
63714;SDS011;49858;48.956;9.076;2022-10-03T15:29:03;5.72;;;2.70;;
63714;SDS011;49858;48.956;9.076;2022-10-03T15:31:35;7.13;;;2.22;;
63714;SDS011;49858;48.956;9.076;2022-10-03T15:34:06;4.80;;;1.92;;
63714;SDS011;49858;48.956;9.076;2022-10-03T15:36:42;5.50;;;2.20;;
63714;SDS011;49858;48.956;9.076;2022-10-03T15:39:17;4.45;;;2.00;;
63714;SDS011;49858;48.956;9.076;2022-10-03T15:41:49;3.15;;;2.20;;
63714;SDS011;49858;48.956;9.076;2022-10-03T15:44:21;4.65;;;2.22;;
63714;SDS011;49858;48.956;9.076;2022-10-03T15:47:00;3.90;;;1.80;;
63714;SDS011;49858;48.956;9.076;2022-10-03T15:49:35;4.70;;;2.20;;
63714;SDS011;49858;48.956;9.076;2022-10-03T15:52:06;5.22;;;2.17;;
63714;SDS011;49858;48.956;9.076;2022-10-03T15:54:43;4.10;;;2.10;;
63714;SDS011;49858;48.956;9.076;2022-10-03T15:57:16;4.50;;;2.00;;
63714;SDS011;49858;48.956;9.076;2022-10-03T15:59:49;4.30;;;2.58;;
63714;SDS011;49858;48.956;9.076;2022-10-03T16:02:28;4.93;;;2.13;;
63714;SDS011;49858;48.956;9.076;2022-10-03T16:05:01;4.43;;;2.05;;
63714;SDS011;49858;48.956;9.076;2022-10-03T16:07:34;5.05;;;2.17;;
63714;SDS011;49858;48.956;9.076;2022-10-03T16:10:11;5.10;;;2.20;;
63714;SDS011;49858;48.956;9.076;2022-10-03T16:12:54;4.93;;;2.05;;
63714;SDS011;49858;48.956;9.076;2022-10-03T16:15:28;50.28;;;26.55;;
63714;SDS011;49858;48.956;9.076;2022-10-03T16:18:08;23.40;;;9.07;;
63714;SDS011;49858;48.956;9.076;2022-10-03T16:20:57;22.05;;;9.63;;
63714;SDS011;49858;48.956;9.076;2022-10-03T16:23:28;7.78;;;2.80;;
63714;SDS011;49858;48.956;9.076;2022-10-03T16:26:00;6.40;;;2.60;;
63714;SDS011;49858;48.956;9.076;2022-10-03T16:28:32;4.53;;;2.10;;
63714;SDS011;49858;48.956;9.076;2022-10-03T16:31:05;3.95;;;2.20;;
63714;SDS011;49858;48.956;9.076;2022-10-03T16:33:42;3.55;;;2.40;;
63714;SDS011;49858;48.956;9.076;2022-10-03T16:36:18;3.92;;;2.28;;
63714;SDS011;49858;48.956;9.076;2022-10-03T16:38:50;3.92;;;2.10;;
63714;SDS011;49858;48.956;9.076;2022-10-03T16:41:20;2.80;;;1.98;;
63714;SDS011;49858;48.956;9.076;2022-10-03T16:43:53;5.88;;;2.35;;
63714;SDS011;49858;48.956;9.076;2022-10-03T16:46:24;5.68;;;2.67;;
63714;SDS011;49858;48.956;9.076;2022-10-03T16:48:57;8.52;;;3.90;;
63714;SDS011;49858;48.956;9.076;2022-10-03T16:51:50;11.80;;;4.78;;
63714;SDS011;49858;48.956;9.076;2022-10-03T16:54:23;5.05;;;2.50;;
63714;SDS011;49858;48.956;9.076;2022-10-03T16:56:54;3.92;;;2.35;;
63714;SDS011;49858;48.956;9.076;2022-10-03T16:59:25;6.15;;;2.40;;
63714;SDS011;49858;48.956;9.076;2022-10-03T17:01:55;6.68;;;2.83;;
63714;SDS011;49858;48.956;9.076;2022-10-03T17:04:28;4.95;;;2.63;;
63714;SDS011;49858;48.956;9.076;2022-10-03T17:06:59;4.35;;;2.85;;
63714;SDS011;49858;48.956;9.076;2022-10-03T17:09:32;5.57;;;2.63;;
63714;SDS011;49858;48.956;9.076;2022-10-03T17:12:05;6.73;;;2.50;;
63714;SDS011;49858;48.956;9.076;2022-10-03T17:14:35;9.68;;;3.28;;
63714;SDS011;49858;48.956;9.076;2022-10-03T17:17:12;6.07;;;3.30;;
63714;SDS011;49858;48.956;9.076;2022-10-03T17:19:54;10.73;;;5.88;;
63714;SDS011;49858;48.956;9.076;2022-10-03T17:22:28;7.88;;;3.75;;
63714;SDS011;49858;48.956;9.076;2022-10-03T17:25:00;7.43;;;3.22;;
63714;SDS011;49858;48.956;9.076;2022-10-03T17:27:34;6.55;;;3.30;;
63714;SDS011;49858;48.956;9.076;2022-10-03T17:30:04;7.18;;;3.90;;
63714;SDS011;49858;48.956;9.076;2022-10-03T17:32:55;7.45;;;3.60;;
63714;SDS011;49858;48.956;9.076;2022-10-03T17:35:30;6.15;;;3.08;;
63714;SDS011;49858;48.956;9.076;2022-10-03T17:38:12;7.53;;;3.03;;
63714;SDS011;49858;48.956;9.076;2022-10-03T17:41:11;5.95;;;3.60;;
63714;SDS011;49858;48.956;9.076;2022-10-03T17:43:44;7.60;;;3.80;;
63714;SDS011;49858;48.956;9.076;2022-10-03T17:46:20;8.43;;;3.65;;
63714;SDS011;49858;48.956;9.076;2022-10-03T17:48:58;5.93;;;3.47;;
63714;SDS011;49858;48.956;9.076;2022-10-03T17:51:35;8.60;;;3.72;;
63714;SDS011;49858;48.956;9.076;2022-10-03T17:54:09;4.65;;;3.55;;
63714;SDS011;49858;48.956;9.076;2022-10-03T17:56:40;7.10;;;3.55;;
63714;SDS011;49858;48.956;9.076;2022-10-03T17:59:12;10.55;;;5.63;;
63714;SDS011;49858;48.956;9.076;2022-10-03T18:01:44;8.85;;;5.30;;
63714;SDS011;49858;48.956;9.076;2022-10-03T18:04:17;19.40;;;11.77;;
63714;SDS011;49858;48.956;9.076;2022-10-03T18:06:47;17.25;;;8.77;;
63714;SDS011;49858;48.956;9.076;2022-10-03T18:09:28;19.15;;;9.50;;
63714;SDS011;49858;48.956;9.076;2022-10-03T18:12:10;15.65;;;9.30;;
63714;SDS011;49858;48.956;9.076;2022-10-03T18:14:45;17.77;;;9.63;;
63714;SDS011;49858;48.956;9.076;2022-10-03T18:17:28;14.82;;;9.10;;
63714;SDS011;49858;48.956;9.076;2022-10-03T18:20:18;16.10;;;9.48;;
63714;SDS011;49858;48.956;9.076;2022-10-03T18:22:58;13.25;;;8.07;;
63714;SDS011;49858;48.956;9.076;2022-10-03T18:25:45;12.02;;;7.95;;
63714;SDS011;49858;48.956;9.076;2022-10-03T18:28:47;13.93;;;9.10;;
63714;SDS011;49858;48.956;9.076;2022-10-03T18:31:22;18.85;;;12.48;;
63714;SDS011;49858;48.956;9.076;2022-10-03T18:33:56;21.50;;;12.70;;
63714;SDS011;49858;48.956;9.076;2022-10-03T18:36:28;16.60;;;10.73;;
63714;SDS011;49858;48.956;9.076;2022-10-03T18:39:02;19.15;;;8.95;;
63714;SDS011;49858;48.956;9.076;2022-10-03T18:41:41;20.10;;;9.10;;
63714;SDS011;49858;48.956;9.076;2022-10-03T18:46:42;11.52;;;6.80;;
63714;SDS011;49858;48.956;9.076;2022-10-03T18:49:16;11.80;;;5.53;;
63714;SDS011;49858;48.956;9.076;2022-10-03T18:52:03;8.52;;;5.15;;
63714;SDS011;49858;48.956;9.076;2022-10-03T18:54:42;8.68;;;4.97;;
63714;SDS011;49858;48.956;9.076;2022-10-03T18:57:21;12.77;;;6.30;;
63714;SDS011;49858;48.956;9.076;2022-10-03T18:59:53;15.82;;;7.18;;
63714;SDS011;49858;48.956;9.076;2022-10-03T19:02:26;15.30;;;8.98;;
63714;SDS011;49858;48.956;9.076;2022-10-03T19:05:03;25.13;;;10.50;;
63714;SDS011;49858;48.956;9.076;2022-10-03T19:07:42;23.50;;;12.05;;